sensor_id;sensor_type;location;lat;lon;timestamp;P1;durP1;ratioP1;P2;durP2;ratioP2
20859;SDS011;10590;48.154;11.514;2023-07-22T00:02:17;7.73;;;5.43;;
20859;SDS011;10590;48.154;11.514;2023-07-22T00:07:44;46.37;;;26.57;;
20859;SDS011;10590;48.154;11.514;2023-07-22T00:13:08;8.93;;;6.33;;
20859;SDS011;10590;48.154;11.514;2023-07-22T00:18:30;10.23;;;5.83;;
20859;SDS011;10590;48.154;11.514;2023-07-22T00:23:53;9.27;;;6.37;;
20859;SDS011;10590;48.154;11.514;2023-07-22T00:29:17;6.83;;;6.13;;
20859;SDS011;10590;48.154;11.514;2023-07-22T00:34:39;7.20;;;6.50;;
20859;SDS011;10590;48.154;11.514;2023-07-22T00:40:05;9.67;;;7.27;;
20859;SDS011;10590;48.154;11.514;2023-07-22T00:45:32;10.00;;;7.63;;
20859;SDS011;10590;48.154;11.514;2023-07-22T00:50:54;8.60;;;7.03;;
20859;SDS011;10590;48.154;11.514;2023-07-22T00:56:18;9.57;;;8.03;;
20859;SDS011;10590;48.154;11.514;2023-07-22T01:01:40;8.13;;;7.30;;
20859;SDS011;10590;48.154;11.514;2023-07-22T01:07:02;7.90;;;6.50;;
20859;SDS011;10590;48.154;11.514;2023-07-22T01:12:28;7.67;;;6.93;;
20859;SDS011;10590;48.154;11.514;2023-07-22T01:17:50;10.10;;;6.77;;
20859;SDS011;10590;48.154;11.514;2023-07-22T01:23:14;9.23;;;7.13;;
20859;SDS011;10590;48.154;11.514;2023-07-22T01:28:36;8.77;;;7.37;;
20859;SDS011;10590;48.154;11.514;2023-07-22T01:33:58;8.43;;;6.87;;
20859;SDS011;10590;48.154;11.514;2023-07-22T01:39:22;8.30;;;7.50;;
20859;SDS011;10590;48.154;11.514;2023-07-22T01:44:44;10.60;;;8.37;;
20859;SDS011;10590;48.154;11.514;2023-07-22T01:50:06;8.57;;;7.67;;
20859;SDS011;10590;48.154;11.514;2023-07-22T01:55:30;9.53;;;7.10;;
20859;SDS011;10590;48.154;11.514;2023-07-22T02:00:52;9.10;;;7.00;;
20859;SDS011;10590;48.154;11.514;2023-07-22T02:06:14;9.40;;;7.00;;
20859;SDS011;10590;48.154;11.514;2023-07-22T02:11:37;8.73;;;6.67;;
20859;SDS011;10590;48.154;11.514;2023-07-22T02:16:59;7.33;;;6.63;;
20859;SDS011;10590;48.154;11.514;2023-07-22T02:22:21;8.30;;;6.37;;
20859;SDS011;10590;48.154;11.514;2023-07-22T02:27:44;7.50;;;6.37;;
20859;SDS011;10590;48.154;11.514;2023-07-22T02:33:06;7.40;;;5.93;;
20859;SDS011;10590;48.154;11.514;2023-07-22T02:38:32;9.50;;;7.13;;
20859;SDS011;10590;48.154;11.514;2023-07-22T02:43:55;9.40;;;7.20;;
20859;SDS011;10590;48.154;11.514;2023-07-22T02:49:17;13.10;;;7.77;;
20859;SDS011;10590;48.154;11.514;2023-07-22T02:54:39;9.33;;;8.20;;
20859;SDS011;10590;48.154;11.514;2023-07-22T03:00:06;11.63;;;7.50;;
20859;SDS011;10590;48.154;11.514;2023-07-22T03:05:31;10.10;;;7.30;;
20859;SDS011;10590;48.154;11.514;2023-07-22T03:10:54;10.33;;;7.83;;
20859;SDS011;10590;48.154;11.514;2023-07-22T03:16:17;8.97;;;7.77;;
20859;SDS011;10590;48.154;11.514;2023-07-22T03:21:39;11.73;;;7.87;;
20859;SDS011;10590;48.154;11.514;2023-07-22T03:27:03;10.60;;;7.83;;
20859;SDS011;10590;48.154;11.514;2023-07-22T03:32:27;10.43;;;7.70;;
20859;SDS011;10590;48.154;11.514;2023-07-22T03:37:49;8.63;;;7.83;;
20859;SDS011;10590;48.154;11.514;2023-07-22T03:43:11;9.10;;;7.77;;
20859;SDS011;10590;48.154;11.514;2023-07-22T03:48:34;9.10;;;8.17;;
20859;SDS011;10590;48.154;11.514;2023-07-22T03:53:56;11.10;;;8.30;;
20859;SDS011;10590;48.154;11.514;2023-07-22T03:59:18;8.43;;;7.43;;
20859;SDS011;10590;48.154;11.514;2023-07-22T04:04:42;8.87;;;7.13;;
20859;SDS011;10590;48.154;11.514;2023-07-22T04:10:04;9.17;;;7.70;;
20859;SDS011;10590;48.154;11.514;2023-07-22T04:15:27;9.70;;;7.20;;
20859;SDS011;10590;48.154;11.514;2023-07-22T04:20:54;9.00;;;6.93;;
20859;SDS011;10590;48.154;11.514;2023-07-22T04:26:17;10.60;;;7.27;;
20859;SDS011;10590;48.154;11.514;2023-07-22T04:31:41;10.97;;;6.77;;
20859;SDS011;10590;48.154;11.514;2023-07-22T04:37:05;11.47;;;7.10;;
20859;SDS011;10590;48.154;11.514;2023-07-22T04:42:27;7.47;;;6.77;;
20859;SDS011;10590;48.154;11.514;2023-07-22T04:47:49;8.50;;;6.10;;
20859;SDS011;10590;48.154;11.514;2023-07-22T04:53:12;9.33;;;6.03;;
20859;SDS011;10590;48.154;11.514;2023-07-22T04:58:34;7.63;;;6.43;;
20859;SDS011;10590;48.154;11.514;2023-07-22T05:03:57;10.20;;;5.90;;
20859;SDS011;10590;48.154;11.514;2023-07-22T05:09:20;8.20;;;5.30;;
20859;SDS011;10590;48.154;11.514;2023-07-22T05:14:42;8.47;;;5.37;;
20859;SDS011;10590;48.154;11.514;2023-07-22T05:20:04;7.30;;;5.80;;
20859;SDS011;10590;48.154;11.514;2023-07-22T05:25:31;6.77;;;5.00;;
20859;SDS011;10590;48.154;11.514;2023-07-22T05:30:55;6.17;;;5.27;;
20859;SDS011;10590;48.154;11.514;2023-07-22T05:36:17;9.03;;;4.90;;
20859;SDS011;10590;48.154;11.514;2023-07-22T05:41:41;5.27;;;4.77;;
20859;SDS011;10590;48.154;11.514;2023-07-22T05:47:03;5.00;;;4.60;;
20859;SDS011;10590;48.154;11.514;2023-07-22T05:52:25;7.00;;;5.00;;
20859;SDS011;10590;48.154;11.514;2023-07-22T05:57:49;5.07;;;4.43;;
20859;SDS011;10590;48.154;11.514;2023-07-22T06:03:10;7.07;;;5.40;;
20859;SDS011;10590;48.154;11.514;2023-07-22T06:08:33;5.47;;;4.67;;
20859;SDS011;10590;48.154;11.514;2023-07-22T06:13:56;5.20;;;4.43;;
20859;SDS011;10590;48.154;11.514;2023-07-22T06:19:18;4.60;;;4.20;;
20859;SDS011;10590;48.154;11.514;2023-07-22T06:24:40;4.97;;;4.47;;
20859;SDS011;10590;48.154;11.514;2023-07-22T06:30:04;5.47;;;4.10;;
20859;SDS011;10590;48.154;11.514;2023-07-22T06:35:28;5.10;;;4.20;;
20859;SDS011;10590;48.154;11.514;2023-07-22T06:40:51;5.63;;;3.73;;
20859;SDS011;10590;48.154;11.514;2023-07-22T06:46:15;8.43;;;3.80;;
20859;SDS011;10590;48.154;11.514;2023-07-22T06:51:37;4.67;;;4.27;;
20859;SDS011;10590;48.154;11.514;2023-07-22T06:56:59;5.27;;;3.57;;
20859;SDS011;10590;48.154;11.514;2023-07-22T07:02:22;3.90;;;2.90;;
20859;SDS011;10590;48.154;11.514;2023-07-22T07:07:45;6.80;;;3.07;;
20859;SDS011;10590;48.154;11.514;2023-07-22T07:13:07;4.13;;;3.03;;
20859;SDS011;10590;48.154;11.514;2023-07-22T07:18:31;3.40;;;3.10;;
20859;SDS011;10590;48.154;11.514;2023-07-22T07:23:53;6.07;;;2.80;;
20859;SDS011;10590;48.154;11.514;2023-07-22T07:29:15;3.97;;;3.00;;
20859;SDS011;10590;48.154;11.514;2023-07-22T07:34:38;3.10;;;2.80;;
20859;SDS011;10590;48.154;11.514;2023-07-22T07:40:01;5.83;;;2.93;;
20859;SDS011;10590;48.154;11.514;2023-07-22T07:45:23;3.73;;;2.80;;
20859;SDS011;10590;48.154;11.514;2023-07-22T07:50:47;5.50;;;2.80;;
20859;SDS011;10590;48.154;11.514;2023-07-22T07:56:10;3.67;;;2.73;;
20859;SDS011;10590;48.154;11.514;2023-07-22T08:01:42;3.37;;;2.80;;
20859;SDS011;10590;48.154;11.514;2023-07-22T08:07:05;5.20;;;2.63;;
20859;SDS011;10590;48.154;11.514;2023-07-22T08:12:28;5.83;;;3.13;;
20859;SDS011;10590;48.154;11.514;2023-07-22T08:17:50;2.53;;;2.33;;
20859;SDS011;10590;48.154;11.514;2023-07-22T08:23:13;4.37;;;3.00;;
20859;SDS011;10590;48.154;11.514;2023-07-22T08:28:35;4.37;;;3.40;;
20859;SDS011;10590;48.154;11.514;2023-07-22T08:33:57;3.20;;;2.90;;
20859;SDS011;10590;48.154;11.514;2023-07-22T08:39:20;3.60;;;2.73;;
20859;SDS011;10590;48.154;11.514;2023-07-22T08:44:43;2.90;;;2.60;;
20859;SDS011;10590;48.154;11.514;2023-07-22T08:50:09;5.57;;;2.87;;
20859;SDS011;10590;48.154;11.514;2023-07-22T08:55:33;4.80;;;2.60;;
20859;SDS011;10590;48.154;11.514;2023-07-22T09:00:55;3.97;;;2.63;;
20859;SDS011;10590;48.154;11.514;2023-07-22T09:06:18;3.50;;;2.40;;
20859;SDS011;10590;48.154;11.514;2023-07-22T09:11:42;4.20;;;2.60;;
20859;SDS011;10590;48.154;11.514;2023-07-22T09:17:07;2.60;;;2.00;;
20859;SDS011;10590;48.154;11.514;2023-07-22T09:22:28;3.90;;;1.97;;
20859;SDS011;10590;48.154;11.514;2023-07-22T09:27:52;2.40;;;1.70;;
20859;SDS011;10590;48.154;11.514;2023-07-22T09:33:19;3.67;;;1.80;;
20859;SDS011;10590;48.154;11.514;2023-07-22T09:38:42;4.17;;;2.03;;
20859;SDS011;10590;48.154;11.514;2023-07-22T09:44:06;3.73;;;2.17;;
20859;SDS011;10590;48.154;11.514;2023-07-22T09:49:32;4.63;;;2.50;;
20859;SDS011;10590;48.154;11.514;2023-07-22T09:54:54;4.83;;;2.73;;
20859;SDS011;10590;48.154;11.514;2023-07-22T10:00:17;3.27;;;2.20;;
20859;SDS011;10590;48.154;11.514;2023-07-22T10:05:42;4.47;;;2.10;;
20859;SDS011;10590;48.154;11.514;2023-07-22T10:11:07;2.70;;;2.50;;
20859;SDS011;10590;48.154;11.514;2023-07-22T10:16:33;4.30;;;2.37;;
20859;SDS011;10590;48.154;11.514;2023-07-22T10:21:57;3.93;;;1.97;;
20859;SDS011;10590;48.154;11.514;2023-07-22T10:27:19;5.20;;;1.90;;
20859;SDS011;10590;48.154;11.514;2023-07-22T10:32:43;2.70;;;1.90;;
20859;SDS011;10590;48.154;11.514;2023-07-22T10:38:08;3.67;;;2.20;;
20859;SDS011;10590;48.154;11.514;2023-07-22T10:43:31;4.10;;;2.37;;
20859;SDS011;10590;48.154;11.514;2023-07-22T10:48:58;3.80;;;3.20;;
20859;SDS011;10590;48.154;11.514;2023-07-22T10:54:32;2.40;;;2.17;;
20859;SDS011;10590;48.154;11.514;2023-07-22T10:59:56;1.93;;;1.83;;
20859;SDS011;10590;48.154;11.514;2023-07-22T11:05:19;2.97;;;2.40;;
20859;SDS011;10590;48.154;11.514;2023-07-22T11:10:51;3.00;;;2.30;;
20859;SDS011;10590;48.154;11.514;2023-07-22T11:16:15;4.80;;;2.37;;
20859;SDS011;10590;48.154;11.514;2023-07-22T11:21:40;3.13;;;2.30;;
20859;SDS011;10590;48.154;11.514;2023-07-22T11:27:03;3.60;;;2.30;;
20859;SDS011;10590;48.154;11.514;2023-07-22T11:32:26;3.10;;;2.00;;
20859;SDS011;10590;48.154;11.514;2023-07-22T11:37:49;3.20;;;1.93;;
20859;SDS011;10590;48.154;11.514;2023-07-22T11:43:22;3.43;;;2.27;;
20859;SDS011;10590;48.154;11.514;2023-07-22T11:48:50;3.67;;;2.23;;
20859;SDS011;10590;48.154;11.514;2023-07-22T11:54:14;2.57;;;2.07;;
20859;SDS011;10590;48.154;11.514;2023-07-22T11:59:38;1.93;;;1.83;;
20859;SDS011;10590;48.154;11.514;2023-07-22T12:05:02;4.05;;;2.20;;
20859;SDS011;10590;48.154;11.514;2023-07-22T12:10:26;4.05;;;2.10;;
20859;SDS011;10590;48.154;11.514;2023-07-22T12:15:58;2.75;;;1.90;;
20859;SDS011;10590;48.154;11.514;2023-07-22T12:21:21;2.47;;;2.20;;
20859;SDS011;10590;48.154;11.514;2023-07-22T12:26:44;4.43;;;2.45;;
20859;SDS011;10590;48.154;11.514;2023-07-22T12:32:07;3.83;;;1.92;;
20859;SDS011;10590;48.154;11.514;2023-07-22T12:37:30;2.40;;;2.13;;
20859;SDS011;10590;48.154;11.514;2023-07-22T12:42:53;2.72;;;2.33;;
20859;SDS011;10590;48.154;11.514;2023-07-22T12:48:15;2.55;;;2.33;;
20859;SDS011;10590;48.154;11.514;2023-07-22T12:53:38;2.50;;;2.20;;
20859;SDS011;10590;48.154;11.514;2023-07-22T12:59:01;3.60;;;2.22;;
20859;SDS011;10590;48.154;11.514;2023-07-22T13:04:23;4.50;;;2.10;;
20859;SDS011;10590;48.154;11.514;2023-07-22T13:09:45;2.42;;;2.22;;
20859;SDS011;10590;48.154;11.514;2023-07-22T13:15:10;2.92;;;2.20;;
20859;SDS011;10590;48.154;11.514;2023-07-22T13:20:32;3.97;;;2.13;;
20859;SDS011;10590;48.154;11.514;2023-07-22T13:25:56;6.65;;;2.33;;
20859;SDS011;10590;48.154;11.514;2023-07-22T13:31:20;5.70;;;2.50;;
20859;SDS011;10590;48.154;11.514;2023-07-22T13:36:42;3.43;;;2.50;;
20859;SDS011;10590;48.154;11.514;2023-07-22T13:42:04;6.83;;;3.00;;
20859;SDS011;10590;48.154;11.514;2023-07-22T13:47:28;3.50;;;2.10;;
20859;SDS011;10590;48.154;11.514;2023-07-22T13:52:50;3.25;;;2.25;;
20859;SDS011;10590;48.154;11.514;2023-07-22T13:58:12;3.25;;;2.30;;
20859;SDS011;10590;48.154;11.514;2023-07-22T14:03:35;2.53;;;2.10;;
20859;SDS011;10590;48.154;11.514;2023-07-22T14:08:57;3.20;;;2.60;;
20859;SDS011;10590;48.154;11.514;2023-07-22T14:14:19;3.30;;;2.38;;
20859;SDS011;10590;48.154;11.514;2023-07-22T14:19:46;2.72;;;2.53;;
20859;SDS011;10590;48.154;11.514;2023-07-22T14:25:08;3.55;;;2.30;;
20859;SDS011;10590;48.154;11.514;2023-07-22T14:30:30;2.95;;;2.65;;
20859;SDS011;10590;48.154;11.514;2023-07-22T14:35:54;2.90;;;2.45;;
20859;SDS011;10590;48.154;11.514;2023-07-22T14:41:16;4.97;;;2.72;;
20859;SDS011;10590;48.154;11.514;2023-07-22T14:46:38;5.00;;;3.10;;
20859;SDS011;10590;48.154;11.514;2023-07-22T14:52:02;4.07;;;3.67;;
20859;SDS011;10590;48.154;11.514;2023-07-22T14:57:24;3.58;;;2.63;;
20859;SDS011;10590;48.154;11.514;2023-07-22T15:02:49;5.70;;;2.70;;
20859;SDS011;10590;48.154;11.514;2023-07-22T15:08:13;4.22;;;2.75;;
20859;SDS011;10590;48.154;11.514;2023-07-22T15:13:35;5.35;;;2.70;;
20859;SDS011;10590;48.154;11.514;2023-07-22T15:18:56;6.15;;;2.95;;
20859;SDS011;10590;48.154;11.514;2023-07-22T15:24:20;3.45;;;2.72;;
20859;SDS011;10590;48.154;11.514;2023-07-22T15:29:42;5.85;;;3.70;;
20859;SDS011;10590;48.154;11.514;2023-07-22T15:35:04;3.90;;;2.72;;
20859;SDS011;10590;48.154;11.514;2023-07-22T15:40:30;3.83;;;3.08;;
20859;SDS011;10590;48.154;11.514;2023-07-22T15:45:57;3.33;;;3.03;;
20859;SDS011;10590;48.154;11.514;2023-07-22T15:51:21;7.03;;;3.08;;
20859;SDS011;10590;48.154;11.514;2023-07-22T15:56:47;3.85;;;3.35;;
20859;SDS011;10590;48.154;11.514;2023-07-22T16:02:08;3.72;;;3.22;;
20859;SDS011;10590;48.154;11.514;2023-07-22T16:07:31;3.90;;;3.27;;
20859;SDS011;10590;48.154;11.514;2023-07-22T16:12:54;4.60;;;3.30;;
20859;SDS011;10590;48.154;11.514;2023-07-22T16:18:16;4.17;;;3.73;;
20859;SDS011;10590;48.154;11.514;2023-07-22T16:23:37;4.30;;;3.70;;
20859;SDS011;10590;48.154;11.514;2023-07-22T16:29:04;5.97;;;3.63;;
20859;SDS011;10590;48.154;11.514;2023-07-22T16:34:26;6.63;;;4.03;;
20859;SDS011;10590;48.154;11.514;2023-07-22T16:39:48;4.33;;;3.70;;
20859;SDS011;10590;48.154;11.514;2023-07-22T16:45:15;4.97;;;3.80;;
20859;SDS011;10590;48.154;11.514;2023-07-22T16:50:37;4.80;;;4.03;;
20859;SDS011;10590;48.154;11.514;2023-07-22T16:55:59;4.80;;;3.87;;
20859;SDS011;10590;48.154;11.514;2023-07-22T17:01:23;4.80;;;3.73;;
20859;SDS011;10590;48.154;11.514;2023-07-22T17:06:45;5.10;;;3.97;;
20859;SDS011;10590;48.154;11.514;2023-07-22T17:12:07;4.33;;;3.93;;
20859;SDS011;10590;48.154;11.514;2023-07-22T17:17:30;5.43;;;4.40;;
20859;SDS011;10590;48.154;11.514;2023-07-22T17:22:52;7.27;;;4.27;;
20859;SDS011;10590;48.154;11.514;2023-07-22T17:28:14;6.60;;;3.87;;
20859;SDS011;10590;48.154;11.514;2023-07-22T17:33:37;6.50;;;3.93;;
20859;SDS011;10590;48.154;11.514;2023-07-22T17:38:59;6.50;;;4.10;;
20859;SDS011;10590;48.154;11.514;2023-07-22T17:44:21;5.43;;;3.93;;
20859;SDS011;10590;48.154;11.514;2023-07-22T17:49:45;6.13;;;3.83;;
20859;SDS011;10590;48.154;11.514;2023-07-22T17:55:07;5.30;;;4.40;;
20859;SDS011;10590;48.154;11.514;2023-07-22T18:00:29;4.20;;;3.80;;
20859;SDS011;10590;48.154;11.514;2023-07-22T18:05:56;6.07;;;4.07;;
20859;SDS011;10590;48.154;11.514;2023-07-22T18:11:19;5.97;;;4.30;;
20859;SDS011;10590;48.154;11.514;2023-07-22T18:16:43;4.50;;;4.00;;
20859;SDS011;10590;48.154;11.514;2023-07-22T18:22:06;4.50;;;4.10;;
20859;SDS011;10590;48.154;11.514;2023-07-22T18:27:28;4.63;;;4.00;;
20859;SDS011;10590;48.154;11.514;2023-07-22T18:32:50;7.17;;;4.37;;
20859;SDS011;10590;48.154;11.514;2023-07-22T18:38:13;8.00;;;4.30;;
20859;SDS011;10590;48.154;11.514;2023-07-22T18:43:35;4.80;;;4.23;;
20859;SDS011;10590;48.154;11.514;2023-07-22T18:49:00;4.73;;;4.10;;
20859;SDS011;10590;48.154;11.514;2023-07-22T18:54:24;5.97;;;4.40;;
20859;SDS011;10590;48.154;11.514;2023-07-22T18:59:46;6.60;;;4.10;;
20859;SDS011;10590;48.154;11.514;2023-07-22T19:05:13;6.23;;;4.23;;
20859;SDS011;10590;48.154;11.514;2023-07-22T19:10:36;6.07;;;4.17;;
20859;SDS011;10590;48.154;11.514;2023-07-22T19:16:05;7.47;;;4.87;;
20859;SDS011;10590;48.154;11.514;2023-07-22T19:21:27;8.03;;;4.77;;
20859;SDS011;10590;48.154;11.514;2023-07-22T19:26:50;6.47;;;5.00;;
20859;SDS011;10590;48.154;11.514;2023-07-22T19:32:12;6.03;;;4.60;;
20859;SDS011;10590;48.154;11.514;2023-07-22T19:37:34;5.50;;;4.27;;
20859;SDS011;10590;48.154;11.514;2023-07-22T19:42:57;5.87;;;4.57;;
20859;SDS011;10590;48.154;11.514;2023-07-22T19:48:19;5.33;;;4.83;;
20859;SDS011;10590;48.154;11.514;2023-07-22T19:53:43;10.57;;;7.33;;
20859;SDS011;10590;48.154;11.514;2023-07-22T19:59:08;7.17;;;5.50;;
20859;SDS011;10590;48.154;11.514;2023-07-22T20:04:30;7.20;;;5.57;;
20859;SDS011;10590;48.154;11.514;2023-07-22T20:09:54;8.80;;;5.60;;
20859;SDS011;10590;48.154;11.514;2023-07-22T20:15:17;6.90;;;5.63;;
20859;SDS011;10590;48.154;11.514;2023-07-22T20:20:39;7.57;;;5.10;;
20859;SDS011;10590;48.154;11.514;2023-07-22T20:26:04;8.33;;;5.10;;
20859;SDS011;10590;48.154;11.514;2023-07-22T20:31:45;6.90;;;5.23;;
20859;SDS011;10590;48.154;11.514;2023-07-22T20:37:08;9.63;;;5.40;;
20859;SDS011;10590;48.154;11.514;2023-07-22T20:42:35;6.00;;;5.20;;
20859;SDS011;10590;48.154;11.514;2023-07-22T20:47:58;11.70;;;5.53;;
20859;SDS011;10590;48.154;11.514;2023-07-22T20:53:21;8.17;;;5.23;;
20859;SDS011;10590;48.154;11.514;2023-07-22T20:58:49;7.43;;;5.03;;
20859;SDS011;10590;48.154;11.514;2023-07-22T21:04:13;6.77;;;4.87;;
20859;SDS011;10590;48.154;11.514;2023-07-22T21:09:38;9.83;;;5.00;;
20859;SDS011;10590;48.154;11.514;2023-07-22T21:15:01;6.33;;;4.70;;
20859;SDS011;10590;48.154;11.514;2023-07-22T21:20:24;5.03;;;4.40;;
20859;SDS011;10590;48.154;11.514;2023-07-22T21:25:46;5.20;;;4.70;;
20859;SDS011;10590;48.154;11.514;2023-07-22T21:31:08;5.47;;;4.67;;
20859;SDS011;10590;48.154;11.514;2023-07-22T21:36:31;4.97;;;4.47;;
20859;SDS011;10590;48.154;11.514;2023-07-22T21:41:53;11.17;;;4.60;;
20859;SDS011;10590;48.154;11.514;2023-07-22T21:47:19;6.23;;;4.87;;
20859;SDS011;10590;48.154;11.514;2023-07-22T21:52:42;7.93;;;4.77;;
20859;SDS011;10590;48.154;11.514;2023-07-22T21:58:04;5.73;;;4.70;;
20859;SDS011;10590;48.154;11.514;2023-07-22T22:03:27;5.33;;;4.50;;
20859;SDS011;10590;48.154;11.514;2023-07-22T22:08:53;4.30;;;4.00;;
20859;SDS011;10590;48.154;11.514;2023-07-22T22:14:15;4.80;;;4.30;;
20859;SDS011;10590;48.154;11.514;2023-07-22T22:19:37;6.50;;;4.27;;
20859;SDS011;10590;48.154;11.514;2023-07-22T22:25:00;4.83;;;4.20;;
20859;SDS011;10590;48.154;11.514;2023-07-22T22:30:22;5.67;;;4.30;;
20859;SDS011;10590;48.154;11.514;2023-07-22T22:35:44;4.97;;;4.30;;
20859;SDS011;10590;48.154;11.514;2023-07-22T22:41:08;7.27;;;4.20;;
20859;SDS011;10590;48.154;11.514;2023-07-22T22:46:30;6.47;;;4.20;;
20859;SDS011;10590;48.154;11.514;2023-07-22T22:51:51;5.37;;;4.60;;
20859;SDS011;10590;48.154;11.514;2023-07-22T22:57:15;5.57;;;4.60;;
20859;SDS011;10590;48.154;11.514;2023-07-22T23:02:37;6.50;;;4.87;;
20859;SDS011;10590;48.154;11.514;2023-07-22T23:08:00;7.53;;;5.13;;
20859;SDS011;10590;48.154;11.514;2023-07-22T23:13:24;5.83;;;5.07;;
20859;SDS011;10590;48.154;11.514;2023-07-22T23:18:48;5.10;;;4.60;;
20859;SDS011;10590;48.154;11.514;2023-07-22T23:24:16;6.23;;;4.73;;
20859;SDS011;10590;48.154;11.514;2023-07-22T23:29:39;5.43;;;4.83;;
20859;SDS011;10590;48.154;11.514;2023-07-22T23:35:01;7.33;;;4.73;;
20859;SDS011;10590;48.154;11.514;2023-07-22T23:40:23;5.80;;;4.90;;
20859;SDS011;10590;48.154;11.514;2023-07-22T23:45:47;7.00;;;5.57;;
20859;SDS011;10590;48.154;11.514;2023-07-22T23:51:09;8.20;;;4.80;;
20859;SDS011;10590;48.154;11.514;2023-07-22T23:56:31;6.47;;;4.87;;
